Mannboro, Virginia
Current Conditions -  °F | °C
As of 10:55 AM on Sunday 25 Jan 2015 (Local Time) from KBKT Reporting Station
Clear Clear  
Wind Chill: 46°   Ceiling: Unl
Heat Index: 46°   Visibility: 10mi
Dew Point: 32°   Wind: 3mph
Humidity: 59%   Direction: 250°WSW
Pressure: 29.91"   Gusts: NA
Location:  37.25°N, 77.82°W
Report Text: KBKT 251555Z AUTO 25003KT 10SM CLR 08/00 A2991 RMK AO1 T00750000
Loading
Personal Weather Stations






























Interactive Weather Map New forecast layout! Learn more

10-Day Weather Forecast

Advertisements
Track Severe Weather on mobile